createdAt,value
2023-05-15T00:02:10.840Z,17.80
2023-05-15T00:04:38.504Z,17.70
2023-05-15T00:07:06.154Z,17.70
2023-05-15T00:09:33.733Z,17.70
2023-05-15T00:12:01.244Z,17.70
2023-05-15T00:14:28.773Z,17.60
2023-05-15T00:16:56.353Z,17.60
2023-05-15T00:19:23.829Z,17.60
2023-05-15T00:21:51.375Z,17.60
2023-05-15T00:24:18.989Z,17.60
2023-05-15T00:26:46.568Z,17.50
2023-05-15T00:29:14.700Z,17.50
2023-05-15T00:31:42.264Z,17.50
2023-05-15T00:34:09.876Z,17.50
2023-05-15T00:36:37.381Z,17.50
2023-05-15T00:39:04.953Z,17.40
2023-05-15T00:41:33.864Z,17.40
2023-05-15T00:44:02.613Z,17.40
2023-05-15T00:46:33.015Z,17.40
2023-05-15T00:49:01.475Z,17.30
2023-05-15T00:51:28.972Z,17.30
2023-05-15T00:53:57.024Z,17.30
2023-05-15T00:56:25.913Z,17.30
2023-05-15T00:58:56.087Z,17.20
2023-05-15T01:01:25.901Z,17.30
2023-05-15T01:03:53.738Z,17.20
2023-05-15T01:06:21.373Z,17.20
2023-05-15T01:08:52.244Z,17.10
2023-05-15T01:11:21.680Z,17.10
2023-05-15T01:13:49.179Z,17.10
2023-05-15T01:16:16.786Z,17.10
2023-05-15T01:18:44.421Z,17.00
2023-05-15T01:21:27.288Z,17.00
2023-05-15T01:24:16.617Z,17.00
2023-05-15T01:27:21.140Z,17.00
2023-05-15T01:30:17.287Z,16.90
2023-05-15T01:32:56.155Z,17.00
2023-05-15T01:35:34.405Z,16.90
2023-05-15T01:38:28.054Z,16.90
2023-05-15T01:41:11.992Z,16.80
2023-05-15T01:43:42.608Z,16.80
2023-05-15T01:46:13.535Z,16.80
2023-05-15T01:48:41.694Z,16.80
2023-05-15T01:51:13.752Z,16.70
2023-05-15T01:53:42.887Z,16.70
2023-05-15T01:56:12.895Z,16.70
2023-05-15T01:58:41.508Z,16.70
2023-05-15T02:01:11.159Z,16.60
2023-05-15T02:03:39.511Z,16.60
2023-05-15T02:06:08.475Z,16.60
2023-05-15T02:08:37.205Z,16.60
2023-05-15T02:11:06.003Z,16.50
2023-05-15T02:13:35.269Z,16.50
2023-05-15T02:16:02.974Z,16.50
2023-05-15T02:18:30.618Z,16.50
2023-05-15T02:20:58.548Z,16.40
2023-05-15T02:23:26.077Z,16.40
2023-05-15T02:26:18.488Z,16.40
2023-05-15T02:29:04.523Z,16.40
2023-05-15T02:31:53.885Z,16.30
2023-05-15T02:34:31.874Z,16.30
2023-05-15T02:37:03.485Z,16.30
2023-05-15T02:39:32.948Z,16.30
2023-05-15T02:42:01.842Z,16.30
2023-05-15T02:44:30.500Z,16.20
2023-05-15T02:46:58.581Z,16.20
2023-05-15T02:49:26.355Z,16.20
2023-05-15T02:51:53.836Z,16.20
2023-05-15T02:54:21.798Z,16.20
2023-05-15T02:56:49.275Z,16.20
2023-05-15T02:59:20.096Z,16.10
2023-05-15T03:01:48.456Z,16.10
2023-05-15T03:04:16.116Z,16.10
2023-05-15T03:06:43.659Z,16.10
2023-05-15T03:09:11.131Z,16.00
2023-05-15T03:11:38.669Z,16.00
2023-05-15T03:14:06.309Z,16.00
2023-05-15T03:16:33.974Z,15.90
2023-05-15T03:19:01.543Z,16.00
2023-05-15T03:21:29.063Z,15.90
2023-05-15T03:23:56.641Z,15.90
2023-05-15T03:26:24.447Z,15.90
2023-05-15T03:28:51.899Z,15.90
2023-05-15T03:31:19.523Z,15.80
2023-05-15T03:33:50.173Z,15.80
2023-05-15T03:36:17.785Z,15.80
2023-05-15T03:38:45.567Z,15.80
2023-05-15T03:41:13.145Z,15.80
2023-05-15T03:43:40.705Z,15.80
2023-05-15T03:46:08.218Z,15.70
2023-05-15T03:48:35.795Z,15.70
2023-05-15T03:51:03.688Z,15.70
2023-05-15T03:53:31.248Z,15.70
2023-05-15T03:55:58.846Z,15.70
2023-05-15T03:58:26.407Z,15.70
2023-05-15T04:00:54.564Z,15.60
2023-05-15T04:03:25.281Z,15.60
2023-05-15T04:05:52.950Z,15.60
2023-05-15T04:08:20.777Z,15.60
2023-05-15T04:10:48.269Z,15.60
2023-05-15T04:13:15.790Z,15.60
2023-05-15T04:15:43.356Z,15.60
2023-05-15T04:18:10.916Z,15.60
2023-05-15T04:20:38.535Z,15.60
2023-05-15T04:23:06.066Z,15.50
2023-05-15T04:25:33.732Z,15.50
2023-05-15T04:28:01.530Z,15.50
2023-05-15T04:30:29.068Z,15.50
2023-05-15T04:32:56.914Z,15.50
2023-05-15T04:35:24.755Z,15.50
2023-05-15T04:37:52.470Z,15.50
2023-05-15T04:40:20.002Z,15.40
2023-05-15T04:42:47.493Z,15.40
2023-05-15T04:45:15.321Z,15.40
2023-05-15T04:47:42.875Z,15.40
2023-05-15T04:50:10.819Z,15.40
2023-05-15T04:52:38.360Z,15.40
2023-05-15T04:55:06.587Z,15.40
2023-05-15T04:57:34.090Z,15.40
2023-05-15T05:00:06.131Z,15.40
2023-05-15T05:02:33.737Z,15.30
2023-05-15T05:05:01.241Z,15.30
2023-05-15T05:07:28.714Z,15.40
2023-05-15T05:09:56.206Z,15.30
2023-05-15T05:12:23.999Z,15.30
2023-05-15T05:14:52.491Z,15.30
2023-05-15T05:17:20.079Z,15.30
2023-05-15T07:27:46.603Z,15.90
2023-05-15T07:30:14.483Z,15.90
2023-05-15T07:32:42.013Z,15.90
2023-05-15T07:35:11.789Z,15.90
2023-05-15T07:37:40.005Z,15.90
2023-05-15T07:40:08.376Z,15.90
2023-05-15T07:42:36.028Z,15.90
2023-05-15T07:45:03.598Z,15.90
2023-05-15T07:47:31.335Z,15.90
2023-05-15T07:49:58.965Z,16.00
2023-05-15T07:52:26.437Z,16.00
2023-05-15T07:54:53.982Z,15.90
2023-05-15T07:57:21.580Z,16.00
2023-05-15T07:59:49.100Z,16.00
2023-05-15T08:02:16.621Z,16.00
2023-05-15T08:04:44.194Z,16.00
2023-05-15T08:07:14.231Z,16.10
2023-05-15T08:09:42.310Z,16.10
2023-05-15T08:12:23.220Z,16.10
2023-05-15T08:14:51.988Z,16.10
2023-05-15T08:17:20.936Z,16.10
2023-05-15T08:19:49.460Z,16.10
2023-05-15T08:22:17.317Z,16.10
2023-05-15T08:24:45.373Z,16.10
2023-05-15T08:27:13.099Z,16.10
2023-05-15T08:29:40.727Z,16.20
2023-05-15T08:32:10.519Z,16.20
2023-05-15T08:34:38.983Z,16.10
2023-05-15T08:37:07.377Z,16.20
2023-05-15T08:39:35.012Z,16.20
2023-05-15T08:42:23.205Z,16.30
2023-05-15T08:44:51.244Z,16.30
2023-05-15T08:47:20.842Z,16.40
2023-05-15T08:50:05.244Z,16.40
2023-05-15T08:52:34.289Z,16.40
2023-05-15T08:55:02.693Z,16.50
2023-05-15T08:57:31.724Z,16.50
2023-05-15T09:00:00.727Z,16.60
2023-05-15T09:02:29.064Z,16.60
2023-05-15T09:04:56.614Z,16.70
2023-05-15T09:07:24.489Z,16.70
2023-05-15T09:09:52.489Z,16.80
2023-05-15T09:12:20.636Z,16.80
2023-05-15T09:14:48.440Z,16.90
2023-05-15T09:17:16.733Z,16.90
2023-05-15T09:19:44.562Z,16.90
2023-05-15T09:22:17.948Z,17.00
2023-05-15T09:24:48.493Z,17.00
2023-05-15T09:27:16.075Z,17.00
2023-05-15T09:29:44.012Z,17.10
2023-05-15T09:32:13.298Z,17.10
2023-05-15T09:34:43.738Z,17.20
2023-05-15T09:37:27.739Z,17.20
2023-05-15T09:39:55.325Z,17.20
2023-05-15T09:42:25.328Z,17.30
2023-05-15T09:44:52.914Z,17.30
2023-05-15T09:47:20.744Z,17.40
2023-05-15T09:49:49.401Z,17.40
2023-05-15T09:52:16.904Z,17.40
2023-05-15T09:54:50.130Z,17.50
2023-05-15T09:57:22.674Z,17.50
2023-05-15T09:59:50.754Z,17.50
2023-05-15T10:02:32.779Z,17.60
2023-05-15T10:05:00.701Z,17.60
2023-05-15T10:07:32.850Z,17.70
2023-05-15T10:10:02.667Z,17.70
2023-05-15T10:12:32.575Z,17.70
2023-05-15T10:15:02.000Z,17.70
2023-05-15T10:17:32.002Z,17.80
2023-05-15T10:20:03.163Z,17.90
2023-05-15T10:22:32.767Z,17.90
2023-05-15T10:25:08.387Z,18.00
2023-05-15T10:27:38.634Z,18.00
2023-05-15T10:30:07.996Z,18.00
2023-05-15T10:32:37.239Z,18.10
2023-05-15T10:35:05.156Z,18.10
2023-05-15T10:37:33.536Z,18.20
2023-05-15T10:40:01.888Z,18.20
2023-05-15T10:42:31.385Z,18.20
2023-05-15T10:45:02.858Z,18.30
2023-05-15T10:47:32.366Z,18.30
2023-05-15T10:50:00.313Z,18.40
2023-05-15T10:52:28.186Z,18.40
2023-05-15T10:54:57.112Z,18.40
2023-05-15T10:57:24.626Z,18.40
2023-05-15T10:59:52.275Z,18.60
2023-05-15T11:02:28.185Z,18.70
2023-05-15T11:05:04.144Z,18.60
2023-05-15T11:07:34.675Z,18.60
2023-05-15T11:10:31.688Z,18.60
2023-05-15T11:13:01.481Z,18.70
2023-05-15T11:15:42.457Z,18.70
2023-05-15T11:18:10.377Z,18.80
2023-05-15T11:20:53.324Z,18.80
2023-05-15T11:23:25.816Z,18.80
2023-05-15T11:26:01.770Z,18.80
2023-05-15T11:28:31.388Z,18.80
2023-05-15T11:31:07.183Z,18.80
2023-05-15T11:33:36.613Z,18.80
2023-05-15T11:36:07.086Z,18.80
2023-05-15T11:38:40.308Z,18.80
2023-05-15T11:41:22.250Z,18.80
2023-05-15T11:43:50.594Z,18.80
2023-05-15T11:46:21.007Z,18.80
2023-05-15T11:48:50.581Z,18.80
2023-05-15T11:51:26.155Z,18.80
2023-05-15T11:53:55.640Z,18.80
2023-05-15T11:56:30.767Z,18.70
2023-05-15T11:59:00.530Z,18.70
2023-05-15T12:01:29.707Z,18.70
2023-05-15T12:03:57.476Z,18.70
2023-05-15T12:06:26.574Z,18.70
2023-05-15T12:08:54.437Z,18.70
2023-05-15T12:11:25.512Z,18.70
2023-05-15T12:13:56.271Z,18.70
2023-05-15T12:16:27.758Z,18.60
2023-05-15T12:18:58.143Z,18.70
2023-05-15T12:21:28.493Z,18.70
2023-05-15T12:26:28.575Z,18.70
2023-05-15T12:28:56.830Z,18.70
2023-05-15T12:31:24.694Z,18.70
2023-05-15T12:33:52.279Z,18.70
2023-05-15T12:36:22.983Z,18.70
2023-05-15T12:38:50.945Z,18.70
2023-05-15T12:41:20.287Z,18.80
2023-05-15T12:43:48.683Z,18.80
2023-05-15T12:46:16.249Z,18.80
2023-05-15T12:48:44.124Z,18.80
2023-05-15T12:51:11.699Z,18.80
2023-05-15T12:53:40.156Z,18.90
2023-05-15T12:56:16.315Z,18.90
2023-05-15T12:58:44.166Z,18.90
2023-05-15T13:01:11.915Z,18.90
2023-05-15T13:03:39.799Z,18.90
2023-05-15T13:06:09.562Z,18.90
2023-05-15T13:08:42.050Z,18.90
2023-05-15T13:11:14.444Z,18.90
2023-05-15T13:13:47.191Z,18.90
2023-05-15T13:16:33.241Z,18.90
2023-05-15T13:19:00.929Z,18.80
2023-05-15T13:21:28.897Z,18.80
2023-05-15T13:23:57.557Z,18.80
2023-05-15T13:26:25.120Z,18.80
2023-05-15T13:28:52.722Z,18.80
2023-05-15T13:31:20.316Z,18.80
2023-05-15T13:33:48.453Z,18.80
2023-05-15T13:36:15.941Z,18.80
2023-05-15T13:38:43.546Z,18.80
2023-05-15T13:41:11.214Z,18.80
2023-05-15T13:43:38.719Z,18.70
2023-05-15T13:46:06.241Z,18.70
2023-05-15T13:48:33.754Z,18.70
2023-05-15T13:51:01.555Z,18.70
2023-05-15T13:53:29.111Z,18.70
2023-05-15T13:55:59.465Z,18.70
2023-05-15T13:58:27.049Z,18.70
2023-05-15T14:00:54.618Z,18.60
2023-05-15T14:03:22.291Z,18.70
2023-05-15T14:05:50.402Z,18.70
2023-05-15T14:08:17.910Z,18.70
2023-05-15T14:10:45.536Z,18.60
2023-05-15T14:13:13.029Z,18.60
2023-05-15T14:15:40.636Z,18.60
2023-05-15T14:18:08.282Z,18.60
2023-05-15T14:20:35.882Z,18.60
2023-05-15T14:23:03.426Z,18.60
2023-05-15T14:25:30.997Z,18.60
2023-05-15T14:27:58.667Z,18.60
2023-05-15T14:30:26.355Z,18.60
2023-05-15T14:32:54.119Z,18.60
2023-05-15T14:35:22.186Z,18.60
2023-05-15T14:37:49.764Z,18.60
2023-05-15T14:40:17.387Z,18.60
2023-05-15T14:42:45.012Z,18.50
2023-05-15T14:45:12.584Z,18.50
2023-05-15T14:47:40.353Z,18.50
2023-05-15T14:50:08.600Z,18.50
2023-05-15T14:52:36.200Z,18.50
2023-05-15T14:55:09.664Z,18.60
2023-05-15T14:57:38.421Z,18.50
2023-05-15T15:00:07.575Z,18.50
2023-05-15T15:02:35.271Z,18.50
2023-05-15T15:05:06.196Z,18.50
2023-05-15T15:08:02.840Z,18.60
2023-05-15T15:10:32.879Z,18.60
2023-05-15T15:13:01.158Z,18.50
2023-05-15T15:15:29.134Z,18.60
2023-05-15T15:17:57.949Z,18.50
2023-05-15T15:20:26.914Z,18.60
2023-05-15T15:22:55.924Z,18.60
2023-05-15T15:25:23.662Z,18.60
2023-05-15T15:27:51.328Z,18.60
2023-05-15T15:30:19.426Z,18.60
2023-05-15T15:32:46.918Z,18.60
2023-05-15T15:35:14.868Z,18.70
2023-05-15T15:37:42.378Z,18.60
2023-05-15T15:40:10.165Z,18.60
2023-05-15T15:42:37.840Z,18.60
2023-05-15T15:45:05.699Z,18.60
2023-05-15T15:47:33.390Z,18.70
2023-05-15T15:50:01.129Z,18.70
2023-05-15T15:52:29.010Z,18.70
2023-05-15T15:54:56.602Z,18.70
2023-05-15T15:57:24.211Z,18.60
2023-05-15T15:59:51.817Z,18.70
2023-05-15T16:02:19.394Z,18.70
2023-05-15T16:04:46.946Z,18.70
2023-05-15T16:07:14.453Z,18.60
2023-05-15T16:09:42.009Z,18.60
2023-05-15T16:12:09.668Z,18.70
2023-05-15T16:14:37.280Z,18.60
2023-05-15T16:17:05.023Z,18.60
2023-05-15T16:19:32.642Z,18.60
2023-05-15T16:22:00.169Z,18.60
2023-05-15T16:24:27.720Z,18.60
2023-05-15T16:26:56.784Z,18.60
2023-05-15T16:29:24.353Z,18.60
2023-05-15T16:31:52.900Z,18.60
2023-05-15T16:34:20.952Z,18.60
2023-05-15T16:36:48.576Z,18.60
2023-05-15T16:39:16.074Z,18.60
2023-05-15T16:41:43.892Z,18.60
2023-05-15T16:44:11.846Z,18.60
2023-05-15T16:46:39.646Z,18.60
2023-05-15T16:49:07.479Z,18.60
2023-05-15T16:51:35.017Z,18.50
2023-05-15T16:54:02.834Z,18.50
2023-05-15T16:56:30.471Z,18.50
2023-05-15T16:58:58.011Z,18.50
2023-05-15T17:01:25.701Z,18.50
2023-05-15T17:03:56.469Z,18.50
2023-05-15T17:06:24.031Z,18.50
2023-05-15T17:08:51.561Z,18.50
2023-05-15T17:11:20.293Z,18.50
2023-05-15T17:13:47.900Z,18.50
2023-05-15T17:16:15.512Z,18.50
2023-05-15T17:18:43.081Z,18.50
2023-05-15T17:21:11.169Z,18.50
2023-05-15T17:23:39.024Z,18.50
2023-05-15T17:26:06.705Z,18.50
2023-05-15T17:28:35.894Z,18.50
2023-05-15T17:31:11.434Z,18.50
2023-05-15T17:33:38.937Z,18.50
2023-05-15T17:36:06.595Z,18.50
2023-05-15T17:38:43.113Z,18.40
2023-05-15T17:41:10.813Z,18.40
2023-05-15T17:43:38.440Z,18.40
2023-05-15T17:46:07.195Z,18.40
2023-05-15T17:48:34.903Z,18.40
2023-05-15T17:51:02.381Z,18.40
2023-05-15T17:53:29.938Z,18.40
2023-05-15T17:55:57.574Z,18.40
2023-05-15T17:58:25.209Z,18.30
2023-05-15T18:00:52.996Z,18.30
2023-05-15T18:03:20.852Z,18.30
2023-05-15T18:05:48.563Z,18.30
2023-05-15T18:08:16.634Z,18.30
2023-05-15T18:10:44.222Z,18.30
2023-05-15T18:13:11.800Z,18.30
2023-05-15T18:15:39.735Z,18.30
2023-05-15T18:18:07.469Z,18.20
2023-05-15T18:20:35.063Z,18.20
2023-05-15T18:23:02.612Z,18.20
2023-05-15T18:25:30.242Z,18.10
2023-05-15T18:27:57.843Z,18.20
2023-05-15T18:30:25.387Z,18.30
2023-05-15T18:32:52.990Z,18.30
2023-05-15T18:35:20.602Z,18.40
2023-05-15T18:37:48.126Z,18.40
2023-05-15T18:40:15.923Z,18.40
2023-05-15T18:42:43.432Z,18.50
2023-05-15T18:45:11.299Z,18.50
2023-05-15T18:47:38.965Z,18.50
2023-05-15T18:50:07.200Z,18.50
2023-05-15T18:52:34.766Z,18.50
2023-05-15T18:55:05.376Z,18.50
2023-05-15T18:57:33.327Z,18.50
2023-05-15T19:00:00.943Z,18.50
2023-05-15T19:02:28.604Z,18.50
2023-05-15T19:04:56.232Z,18.40
2023-05-15T19:07:23.805Z,18.40
2023-05-15T19:09:51.408Z,18.40
2023-05-15T19:12:18.965Z,18.40
2023-05-15T19:14:46.440Z,18.40
2023-05-15T19:17:14.024Z,18.30
2023-05-15T19:19:41.570Z,18.30
2023-05-15T19:22:09.079Z,18.30
2023-05-15T19:24:36.584Z,18.30
2023-05-15T19:27:04.320Z,18.30
2023-05-15T19:29:34.016Z,18.20
2023-05-15T19:32:03.118Z,18.20
2023-05-15T19:34:30.932Z,18.20
2023-05-15T19:36:58.433Z,18.20
2023-05-15T19:39:26.037Z,18.20
2023-05-15T19:41:53.569Z,18.10
2023-05-15T19:44:21.325Z,18.10
2023-05-15T19:46:48.859Z,18.10
2023-05-15T19:49:16.505Z,18.00
2023-05-15T19:51:44.030Z,18.00
2023-05-15T19:54:11.789Z,18.00
2023-05-15T19:56:39.384Z,18.00
2023-05-15T19:59:06.918Z,17.90
2023-05-15T20:01:34.446Z,17.90
2023-05-15T20:04:02.019Z,17.90
2023-05-15T20:06:29.587Z,17.90
2023-05-15T20:08:57.322Z,17.90
2023-05-15T20:11:25.066Z,17.80
2023-05-15T20:13:52.617Z,17.80
2023-05-15T20:16:22.070Z,17.70
2023-05-15T20:18:54.738Z,17.80
2023-05-15T20:21:22.454Z,17.70
2023-05-15T20:23:50.032Z,17.70
2023-05-15T20:26:20.180Z,17.70
2023-05-15T20:28:47.722Z,17.70
2023-05-15T20:31:15.502Z,17.60
2023-05-15T20:33:43.076Z,17.60
2023-05-15T20:36:10.932Z,17.60
2023-05-15T20:38:38.888Z,17.60
2023-05-15T20:41:06.476Z,17.60
2023-05-15T20:43:33.971Z,17.60
2023-05-15T20:46:01.501Z,17.50
2023-05-15T20:48:29.076Z,17.50
2023-05-15T20:50:56.745Z,17.50
2023-05-15T20:53:24.315Z,17.50
2023-05-15T20:55:51.868Z,17.50
2023-05-15T20:58:19.397Z,17.40
2023-05-15T21:00:47.006Z,17.40
2023-05-15T21:03:15.394Z,17.40
2023-05-15T21:05:43.237Z,17.40
2023-05-15T21:08:10.800Z,17.40
2023-05-15T21:10:38.296Z,17.40
2023-05-15T21:13:05.950Z,17.30
2023-05-15T21:15:33.655Z,17.30
2023-05-15T21:18:01.693Z,17.30
2023-05-15T21:20:29.435Z,17.30
2023-05-15T21:22:56.976Z,17.20
2023-05-15T21:25:24.519Z,17.20
2023-05-15T21:27:52.272Z,17.20
2023-05-15T21:30:19.989Z,17.20
2023-05-15T21:32:47.532Z,17.20
2023-05-15T21:35:15.116Z,17.20
2023-05-15T21:37:42.681Z,17.10
2023-05-15T21:40:10.880Z,17.10
2023-05-15T21:42:38.496Z,17.10
2023-05-15T21:45:07.167Z,17.10
2023-05-15T21:47:34.725Z,17.00
2023-05-15T21:50:02.468Z,17.00
2023-05-15T21:52:29.996Z,17.00
2023-05-15T21:54:57.455Z,17.00
2023-05-15T21:57:25.108Z,17.00
2023-05-15T21:59:52.596Z,16.90
2023-05-15T22:02:20.088Z,16.90
2023-05-15T22:04:47.635Z,16.90
2023-05-15T22:07:15.252Z,16.90
2023-05-15T22:10:26.304Z,16.90
2023-05-15T22:12:54.585Z,16.80
2023-05-15T22:15:22.227Z,16.80
2023-05-15T22:17:49.940Z,16.80
2023-05-15T22:20:19.161Z,16.70
2023-05-15T22:22:47.115Z,16.70
2023-05-15T22:25:14.801Z,16.70
2023-05-15T22:27:42.723Z,16.70
2023-05-15T22:30:10.632Z,16.70
2023-05-15T22:32:38.332Z,16.60
2023-05-15T22:35:18.882Z,16.60
2023-05-15T22:37:46.964Z,16.60
2023-05-15T22:40:14.600Z,16.60
2023-05-15T22:42:42.123Z,16.50
2023-05-15T22:45:10.550Z,16.50
2023-05-15T22:47:38.458Z,16.50
2023-05-15T22:50:06.627Z,16.50
2023-05-15T22:52:38.365Z,16.50
2023-05-15T22:55:07.512Z,16.50
2023-05-15T22:57:34.995Z,16.40
2023-05-15T23:00:03.265Z,16.40
2023-05-15T23:02:30.860Z,16.40
2023-05-15T23:04:58.498Z,16.40
2023-05-15T23:07:28.231Z,16.30
2023-05-15T23:09:58.511Z,16.30
2023-05-15T23:12:26.016Z,16.30
2023-05-15T23:14:53.503Z,16.30
2023-05-15T23:17:21.084Z,16.30
2023-05-15T23:19:48.568Z,16.30
2023-05-15T23:22:16.209Z,16.20
2023-05-15T23:24:43.718Z,16.20
2023-05-15T23:27:11.253Z,16.20
2023-05-15T23:29:38.831Z,16.20
2023-05-15T23:32:06.966Z,16.20
2023-05-15T23:34:34.509Z,16.20
2023-05-15T23:37:02.016Z,16.10
2023-05-15T23:39:29.526Z,16.20
2023-05-15T23:41:57.508Z,16.10
2023-05-15T23:44:25.261Z,16.10
2023-05-15T23:46:52.836Z,16.10
2023-05-15T23:49:20.489Z,16.10
2023-05-15T23:51:47.995Z,16.00
2023-05-15T23:54:15.478Z,16.00
2023-05-15T23:56:42.959Z,16.00
2023-05-15T23:59:10.782Z,16.00
